Airfield :
LOGIN :

Register | Disclaimer

   EN    FR    IT 

 










Legend :    VFR   Marginal VFR   IFR   Intensive IFR   Very Intensive IFR
Visi :
Ceiling :
>= 8 km
>= 3000ft
5 to 8 km
1000 to 3000 ft
1500m to 5 km
500 to 1000 ft
800 to 1500m
200 to 500 ft
< 800m
< 200 ft
Symbols :   Thunderstorms  Fog  Heavy snow  Heavy precipitations  Wind > 20 kt
SIGMETs :     Misc.  Thunderstorms  Icing  Turbulence  Mountain Waves  Volcanic Ashes






- Airport Elevation : 239 ft
- IATA code : VRN


LIPX - Villafranca Int. Verona

CURRENT METAR :
  • 270220Z AUTO 35002KT 0400 0200SW R04/1400U FZFG M03/M03 Q1023

EXPIRED METARs :
  • 270150Z AUTO VRB01KT 1800 0050SW R04/0275N M03/M03 Q1023
  • 270120Z AUTO VRB01KT 0150 0050SW R04/0250N FZFG VV003 M03/M03 Q1023
  • 270050Z AUTO VRB01KT 0100 0050SW R04/0300N FZFG VV002 M03/M03 Q1023
  • 270020Z AUTO 24003KT 0050 0000SW R04/0225N FZFG VV000 M02/M02 Q1023
  • 262350Z AUTO 24002KT 0050 0000SW R04/0250N -SN FZFG VV001 M02/M02 Q1023

TAF TAF LIPX
Valid from the 27 at 03:00 until the 27 at 12:00 UTC


270200Z 2703/2712 VRB03KT 0200 FZFG BKN003
BECMG 2708/2711 4000 BR SCT010



MET'MAP, your aeronautical weather chart ! - Copyright ORBIFLY December 2007 - Disclaimer

ORBIFLY MET'MAP TEAM :

Programming & Development : Alexandra Zaïnal
Concept & original design : Baudouin d'Aumeries
Assistance for programming : Marc-Olivier Méhu
Technical & hardware support : Manuel Goepfert

Contact : metmap@orbifly.com




SOURCES & CREDITS :

   NOAA